createdAt,value
2023-11-23T00:00:02.396Z,81.15
2023-11-23T00:01:02.331Z,80.59
2023-11-23T00:02:02.369Z,80.47
2023-11-23T00:03:02.378Z,80.61
2023-11-23T00:04:02.336Z,80.89
2023-11-23T00:05:02.362Z,80.70
2023-11-23T00:06:02.292Z,80.93
2023-11-23T00:07:02.278Z,81.12
2023-11-23T00:08:02.235Z,81.03
2023-11-23T00:09:02.316Z,81.38
2023-11-23T00:10:02.206Z,81.49
2023-11-23T00:11:23.197Z,81.33
2023-11-23T00:12:02.232Z,81.53
2023-11-23T00:13:02.256Z,81.41
2023-11-23T00:14:02.196Z,81.50
2023-11-23T00:15:02.564Z,81.14
2023-11-23T00:16:02.112Z,81.15
2023-11-23T00:17:02.178Z,81.32
2023-11-23T00:18:02.192Z,81.53
2023-11-23T00:19:02.191Z,81.61
2023-11-23T00:20:02.101Z,81.43
2023-11-23T00:21:02.103Z,81.65
2023-11-23T00:22:02.024Z,82.03
2023-11-23T00:23:02.087Z,82.10
2023-11-23T00:24:02.028Z,82.05
2023-11-23T00:25:02.109Z,82.16
2023-11-23T00:26:01.998Z,82.02
2023-11-23T00:27:02.107Z,82.17
2023-11-23T00:28:01.966Z,81.81
2023-11-23T00:29:02.021Z,81.61
2023-11-23T00:30:01.973Z,81.79
2023-11-23T00:31:01.934Z,81.80
2023-11-23T00:32:01.934Z,82.09
2023-11-23T00:33:02.069Z,82.10
2023-11-23T00:34:02.065Z,82.02
2023-11-23T00:35:01.969Z,81.85
2023-11-23T00:36:01.886Z,81.72
2023-11-23T00:37:01.875Z,81.66
2023-11-23T00:38:01.852Z,81.73
2023-11-23T00:39:01.928Z,81.39
2023-11-23T00:40:01.821Z,81.53
2023-11-23T00:41:02.874Z,81.43
2023-11-23T00:42:01.808Z,81.08
2023-11-23T00:43:01.897Z,81.08
2023-11-23T00:44:01.784Z,81.31
2023-11-23T00:45:01.924Z,81.35
2023-11-23T00:46:01.718Z,81.00
2023-11-23T00:47:01.871Z,80.65
2023-11-23T00:48:01.800Z,80.96
2023-11-23T00:49:01.781Z,81.32
2023-11-23T00:50:01.710Z,81.31
2023-11-23T00:51:03.824Z,81.48
2023-11-23T00:52:01.641Z,81.39
2023-11-23T00:53:01.691Z,81.58
2023-11-23T00:54:01.656Z,81.85
2023-11-23T00:55:01.704Z,82.04
2023-11-23T00:56:01.612Z,81.38
2023-11-23T00:57:01.649Z,81.57
2023-11-23T00:58:04.438Z,81.58
2023-11-23T00:59:01.549Z,81.52
2023-11-23T01:00:01.789Z,81.49
2023-11-23T01:01:01.636Z,81.57
2023-11-23T01:02:01.762Z,81.98
2023-11-23T01:03:01.641Z,82.05
2023-11-23T01:04:01.655Z,82.17
2023-11-23T01:05:01.481Z,82.46
2023-11-23T01:06:01.513Z,82.50
2023-11-23T01:07:01.455Z,82.42
2023-11-23T01:08:01.540Z,82.30
2023-11-23T01:09:01.465Z,82.42
2023-11-23T01:10:01.507Z,82.56
2023-11-23T01:11:01.396Z,82.37
2023-11-23T01:12:01.448Z,82.50
2023-11-23T01:13:01.414Z,82.51
2023-11-23T01:14:01.497Z,82.68
2023-11-23T01:15:01.407Z,82.77
2023-11-23T01:16:01.448Z,82.90
2023-11-23T01:17:01.367Z,82.75
2023-11-23T01:18:01.480Z,82.84
2023-11-23T01:19:01.298Z,82.89
2023-11-23T01:20:01.342Z,83.06
2023-11-23T01:21:01.293Z,83.22
2023-11-23T01:22:01.298Z,83.44
2023-11-23T01:23:01.241Z,83.21
2023-11-23T01:24:01.326Z,82.99
2023-11-23T01:25:01.218Z,82.91
2023-11-23T01:26:01.270Z,82.93
2023-11-23T01:27:01.204Z,82.76
2023-11-23T01:28:01.228Z,82.93
2023-11-23T01:29:01.165Z,83.01
2023-11-23T01:30:01.299Z,83.04
2023-11-23T01:31:01.159Z,83.23
2023-11-23T01:32:01.208Z,83.52
2023-11-23T01:33:01.247Z,83.60
2023-11-23T01:34:01.434Z,83.53
2023-11-23T01:35:01.089Z,83.47
2023-11-23T01:36:01.205Z,83.76
2023-11-23T01:37:01.053Z,83.82
2023-11-23T01:38:01.153Z,83.65
2023-11-23T01:39:01.069Z,83.37
2023-11-23T01:40:01.113Z,83.62
2023-11-23T01:41:01.009Z,83.56
2023-11-23T01:42:01.064Z,83.33
2023-11-23T01:43:00.986Z,83.36
2023-11-23T01:44:01.083Z,83.62
2023-11-23T01:45:00.990Z,83.19
2023-11-23T01:46:01.100Z,82.81
2023-11-23T01:47:00.932Z,82.97
2023-11-23T01:48:01.048Z,83.04
2023-11-23T01:49:00.903Z,83.25
2023-11-23T01:50:00.927Z,83.41
2023-11-23T01:51:00.901Z,83.31
2023-11-23T01:52:00.891Z,83.26
2023-11-23T01:53:00.866Z,83.37
2023-11-23T01:54:00.935Z,83.62
2023-11-23T01:55:00.835Z,83.74
2023-11-23T01:56:00.867Z,83.90
2023-11-23T01:57:00.840Z,84.15
2023-11-23T01:58:00.841Z,84.18
2023-11-23T01:59:00.776Z,84.06
2023-11-23T02:00:00.900Z,83.97
2023-11-23T02:01:00.751Z,84.14
2023-11-23T02:02:00.840Z,84.43
2023-11-23T02:03:00.803Z,84.45
2023-11-23T02:04:00.796Z,84.54
2023-11-23T02:05:00.704Z,84.54
2023-11-23T02:06:01.821Z,84.55
2023-11-23T02:07:00.668Z,84.61
2023-11-23T02:08:00.761Z,84.70
2023-11-23T02:09:00.685Z,84.76
2023-11-23T02:10:00.713Z,84.72
2023-11-23T02:11:00.640Z,84.64
2023-11-23T02:12:00.649Z,84.67
2023-11-23T02:13:00.594Z,84.62
2023-11-23T02:14:00.710Z,84.61
2023-11-23T02:15:00.621Z,84.70
2023-11-23T02:16:00.700Z,84.82
2023-11-23T02:17:00.539Z,84.75
2023-11-23T02:18:00.634Z,84.93
2023-11-23T02:19:00.530Z,85.17
2023-11-23T02:20:00.702Z,85.20
2023-11-23T02:21:00.505Z,85.17
2023-11-23T02:22:00.493Z,85.14
2023-11-23T02:23:00.458Z,85.09
2023-11-23T02:24:00.530Z,85.20
2023-11-23T02:25:00.465Z,85.30
2023-11-23T02:26:00.493Z,85.28
2023-11-23T02:27:00.453Z,85.22
2023-11-23T02:28:00.460Z,85.23
2023-11-23T02:29:00.379Z,85.27
2023-11-23T02:30:00.512Z,85.26
2023-11-23T02:31:00.390Z,85.28
2023-11-23T02:32:00.409Z,85.09
2023-11-23T02:33:00.395Z,85.14
2023-11-23T02:34:00.376Z,85.31
2023-11-23T02:35:00.348Z,85.32
2023-11-23T02:36:00.413Z,85.34
2023-11-23T02:37:00.285Z,84.89
2023-11-23T02:38:00.361Z,84.80
2023-11-23T02:39:00.329Z,84.92
2023-11-23T02:40:00.331Z,84.97
2023-11-23T02:41:00.229Z,85.36
2023-11-23T02:42:00.266Z,85.51
2023-11-23T02:43:00.193Z,85.41
2023-11-23T02:44:00.300Z,85.26
2023-11-23T02:45:00.250Z,85.15
2023-11-23T02:46:00.269Z,85.12
2023-11-23T02:47:00.156Z,85.07
2023-11-23T02:48:00.279Z,85.36
2023-11-23T02:49:00.136Z,85.51
2023-11-23T02:50:00.333Z,85.40
2023-11-23T02:51:00.151Z,85.12
2023-11-23T02:52:00.205Z,84.94
2023-11-23T02:53:00.072Z,84.95
2023-11-23T02:54:00.146Z,84.79
2023-11-23T02:55:00.056Z,85.02
2023-11-23T02:56:00.080Z,84.97
2023-11-23T02:57:00.061Z,84.89
2023-11-23T02:58:00.048Z,84.85
2023-11-23T02:59:00.004Z,84.97
2023-11-23T03:00:00.095Z,85.10
2023-11-23T03:00:59.984Z,84.94
2023-11-23T03:02:00.050Z,85.18
2023-11-23T03:03:00.007Z,85.33
2023-11-23T03:04:00.088Z,85.09
2023-11-23T03:04:59.912Z,84.84
2023-11-23T03:06:00.093Z,84.96
2023-11-23T03:06:59.915Z,85.15
2023-11-23T03:07:59.954Z,85.44
2023-11-23T03:08:59.941Z,85.42
2023-11-23T03:09:59.918Z,85.13
2023-11-23T03:10:59.845Z,85.09
2023-11-23T03:11:59.984Z,85.24
2023-11-23T03:12:59.820Z,85.58
2023-11-23T03:13:59.898Z,85.73
2023-11-23T03:14:59.802Z,85.84
2023-11-23T03:15:59.861Z,86.05
2023-11-23T03:16:59.759Z,86.17
2023-11-23T03:17:59.941Z,86.06
2023-11-23T03:18:59.878Z,85.92
2023-11-23T03:20:01.787Z,85.74
2023-11-23T03:20:59.809Z,85.60
2023-11-23T03:21:59.906Z,85.46
2023-11-23T03:22:59.679Z,85.48
2023-11-23T03:23:59.740Z,85.61
2023-11-23T03:24:59.666Z,85.76
2023-11-23T03:25:59.812Z,85.71
2023-11-23T03:26:59.692Z,85.70
2023-11-23T03:27:59.637Z,85.71
2023-11-23T03:28:59.616Z,85.88
2023-11-23T03:29:59.687Z,85.96
2023-11-23T03:30:59.584Z,85.97
2023-11-23T03:31:59.673Z,85.90
2023-11-23T03:32:59.645Z,85.78
2023-11-23T03:33:59.637Z,85.83
2023-11-23T03:34:59.560Z,85.92
2023-11-23T03:35:59.633Z,85.98
2023-11-23T03:36:59.511Z,86.00
2023-11-23T03:37:59.553Z,86.05
2023-11-23T03:38:59.486Z,86.02
2023-11-23T03:39:59.524Z,85.92
2023-11-23T03:40:59.458Z,85.99
2023-11-23T03:41:59.562Z,86.19
2023-11-23T03:42:59.440Z,86.03
2023-11-23T03:43:59.514Z,86.07
2023-11-23T03:44:59.442Z,86.13
2023-11-23T03:45:59.526Z,86.15
2023-11-23T03:46:59.373Z,86.16
2023-11-23T03:47:59.499Z,86.27
2023-11-23T03:48:59.356Z,86.31
2023-11-23T03:49:59.443Z,86.38
2023-11-23T03:50:59.433Z,86.39
2023-11-23T03:51:59.409Z,86.47
2023-11-23T03:52:59.304Z,86.47
2023-11-23T03:53:59.346Z,86.36
2023-11-23T03:54:59.277Z,86.16
2023-11-23T03:55:59.393Z,86.14
2023-11-23T03:56:59.307Z,86.21
2023-11-23T03:57:59.377Z,86.19
2023-11-23T03:58:59.268Z,86.28
2023-11-23T03:59:59.297Z,86.19
2023-11-23T04:00:59.222Z,86.14
2023-11-23T04:01:59.328Z,86.08
2023-11-23T04:02:59.217Z,86.03
2023-11-23T04:03:59.303Z,85.98
2023-11-23T04:04:59.143Z,86.02
2023-11-23T04:05:59.154Z,86.15
2023-11-23T04:06:59.215Z,86.31
2023-11-23T04:07:59.149Z,86.35
2023-11-23T04:08:59.137Z,86.25
2023-11-23T04:09:59.089Z,86.05
2023-11-23T04:10:59.153Z,85.90
2023-11-23T04:11:59.095Z,86.16
2023-11-23T04:12:59.173Z,86.38
2023-11-23T04:13:59.080Z,86.34
2023-11-23T04:14:59.078Z,85.98
2023-11-23T04:15:58.999Z,85.96
2023-11-23T04:16:59.113Z,85.89
2023-11-23T04:17:59.057Z,85.92
2023-11-23T04:18:58.995Z,86.20
2023-11-23T04:19:58.982Z,86.33
2023-11-23T04:20:59.065Z,86.32
2023-11-23T04:21:58.929Z,86.29
2023-11-23T04:22:59.018Z,86.43
2023-11-23T04:23:58.930Z,86.57
2023-11-23T04:24:58.930Z,86.49
2023-11-23T04:25:58.896Z,86.34
2023-11-23T04:26:58.965Z,86.15
2023-11-23T04:27:58.850Z,86.25
2023-11-23T04:28:58.859Z,86.32
2023-11-23T04:29:58.849Z,86.58
2023-11-23T04:30:58.888Z,86.73
2023-11-23T04:31:58.821Z,86.78
2023-11-23T04:33:00.145Z,86.72
2023-11-23T04:33:58.880Z,86.72
2023-11-23T04:35:19.802Z,86.62
2023-11-23T04:35:58.804Z,86.46
2023-11-23T04:36:58.840Z,86.48
2023-11-23T04:37:58.763Z,86.73
2023-11-23T04:38:58.826Z,86.72
2023-11-23T04:39:58.704Z,86.78
2023-11-23T04:40:58.738Z,86.70
2023-11-23T04:41:58.749Z,86.51
2023-11-23T04:42:58.764Z,86.32
2023-11-23T04:43:58.661Z,86.23
2023-11-23T04:44:58.693Z,86.29
2023-11-23T04:45:58.627Z,86.51
2023-11-23T04:46:58.681Z,86.58
2023-11-23T04:47:58.685Z,86.47
2023-11-23T04:48:58.760Z,86.37
2023-11-23T04:49:58.589Z,86.32
2023-11-23T04:50:58.626Z,86.29
2023-11-23T04:51:58.538Z,86.42
2023-11-23T04:52:58.671Z,86.50
2023-11-23T04:53:58.566Z,86.46
2023-11-23T04:54:58.569Z,86.38
2023-11-23T04:55:58.504Z,86.35
2023-11-23T04:56:58.616Z,86.45
2023-11-23T04:57:58.476Z,86.55
2023-11-23T04:58:58.567Z,86.65
2023-11-23T04:59:58.478Z,86.72
2023-11-23T05:00:58.535Z,86.67
2023-11-23T05:01:58.448Z,86.67
2023-11-23T05:02:58.596Z,86.53
2023-11-23T05:03:58.479Z,86.45
2023-11-23T05:04:58.400Z,86.63
2023-11-23T05:05:58.456Z,86.68
2023-11-23T05:06:58.419Z,86.73
2023-11-23T05:07:58.360Z,86.41
2023-11-23T05:08:58.454Z,86.18
2023-11-23T05:09:58.312Z,86.25
2023-11-23T05:10:58.350Z,86.27
2023-11-23T05:11:59.742Z,86.32
2023-11-23T05:12:58.361Z,86.49
2023-11-23T05:13:58.270Z,86.38
2023-11-23T05:14:58.281Z,86.36
2023-11-23T05:15:58.232Z,86.15
2023-11-23T05:16:58.336Z,86.32
2023-11-23T05:17:58.264Z,86.47
2023-11-23T05:18:58.339Z,86.40
2023-11-23T05:19:58.204Z,86.32
2023-11-23T05:20:58.237Z,86.14
2023-11-23T05:21:58.156Z,86.01
2023-11-23T05:22:58.225Z,86.02
2023-11-23T05:24:00.219Z,85.93
2023-11-23T05:24:58.243Z,86.10
2023-11-23T05:25:58.120Z,86.22
2023-11-23T05:26:58.168Z,86.43
2023-11-23T05:27:58.099Z,86.39
2023-11-23T05:28:58.281Z,86.26
2023-11-23T05:29:58.092Z,86.31
2023-11-23T05:30:58.113Z,86.21
2023-11-23T05:31:58.060Z,86.33
2023-11-23T05:32:58.215Z,86.67
2023-11-23T05:33:58.086Z,86.69
2023-11-23T05:34:58.020Z,86.56
2023-11-23T05:35:58.000Z,86.48
2023-11-23T05:36:58.025Z,86.52
2023-11-23T05:37:57.966Z,86.61
2023-11-23T05:38:58.094Z,86.56
2023-11-23T05:39:58.024Z,86.63
2023-11-23T05:40:57.951Z,86.65
2023-11-23T05:41:57.936Z,86.77
2023-11-23T05:43:03.368Z,86.80
2023-11-23T05:43:58.904Z,86.73
2023-11-23T05:44:57.904Z,86.71
2023-11-23T05:45:57.865Z,86.75
2023-11-23T05:46:57.914Z,86.73
2023-11-23T05:47:57.880Z,86.78
2023-11-23T05:48:57.912Z,86.85
2023-11-23T05:49:57.813Z,86.88
2023-11-23T05:50:57.819Z,86.92
2023-11-23T05:51:57.779Z,86.93
2023-11-23T05:52:57.857Z,86.90
2023-11-23T05:53:57.770Z,86.82
2023-11-23T05:54:57.845Z,86.81
2023-11-23T05:55:57.762Z,86.84
2023-11-23T05:56:57.781Z,86.89
2023-11-23T05:57:57.694Z,86.84
2023-11-23T05:58:57.774Z,86.84
2023-11-23T05:59:57.681Z,86.93
2023-11-23T06:01:06.976Z,86.83
2023-11-23T06:01:58.694Z,86.96
2023-11-23T06:02:57.767Z,87.04
2023-11-23T06:03:57.874Z,86.99
2023-11-23T06:04:57.784Z,87.01
2023-11-23T06:05:57.611Z,86.94
2023-11-23T06:06:57.656Z,86.93
2023-11-23T06:07:57.618Z,87.25
2023-11-23T06:08:57.697Z,87.25
2023-11-23T06:09:57.541Z,87.06
2023-11-23T06:10:57.569Z,86.92
2023-11-23T06:11:57.535Z,86.85
2023-11-23T06:12:57.570Z,86.67
2023-11-23T06:13:57.513Z,86.57
2023-11-23T06:14:57.615Z,86.72
2023-11-23T06:15:57.494Z,86.83
2023-11-23T06:16:57.501Z,86.89
2023-11-23T06:18:07.554Z,86.94
2023-11-23T06:18:59.324Z,87.01
2023-11-23T06:19:57.527Z,86.92
2023-11-23T06:20:57.451Z,86.89
2023-11-23T06:21:57.443Z,86.86
2023-11-23T06:22:57.370Z,86.92
2023-11-23T06:23:57.467Z,87.08
2023-11-23T06:24:57.373Z,87.11
2023-11-23T06:25:57.359Z,87.07
2023-11-23T06:26:57.366Z,86.86
2023-11-23T06:28:08.440Z,86.86
2023-11-23T06:28:58.294Z,86.91
2023-11-23T06:29:57.405Z,87.01
2023-11-23T06:30:57.298Z,87.05
2023-11-23T06:31:59.511Z,87.09
2023-11-23T06:32:57.305Z,87.03
2023-11-23T06:33:57.370Z,87.16
2023-11-23T06:34:57.217Z,87.16
2023-11-23T06:35:57.244Z,87.22
2023-11-23T06:36:57.220Z,87.34
2023-11-23T06:37:57.237Z,87.35
2023-11-23T06:38:57.184Z,87.33
2023-11-23T06:39:58.436Z,87.28
2023-11-23T06:40:57.149Z,87.29
2023-11-23T06:41:57.211Z,87.30
2023-11-23T06:42:57.137Z,87.48
2023-11-23T06:43:57.183Z,87.55
2023-11-23T06:44:57.130Z,87.56
2023-11-23T06:45:57.203Z,87.56
2023-11-23T06:46:57.072Z,87.63
2023-11-23T06:47:57.158Z,87.70
2023-11-23T06:48:57.063Z,87.66
2023-11-23T06:49:57.123Z,87.65
2023-11-23T06:50:57.022Z,87.72
2023-11-23T06:51:57.056Z,87.75
2023-11-23T06:52:56.986Z,87.72
2023-11-23T06:53:58.086Z,87.72
2023-11-23T06:54:56.991Z,87.78
2023-11-23T06:55:57.063Z,87.78
2023-11-23T06:56:57.072Z,87.81
2023-11-23T06:57:56.975Z,87.84
2023-11-23T06:58:56.919Z,87.83
2023-11-23T06:59:57.000Z,87.83
2023-11-23T07:00:56.905Z,87.85
2023-11-23T07:01:57.217Z,87.84
2023-11-23T07:02:57.233Z,87.86
2023-11-23T07:03:56.979Z,87.85
2023-11-23T07:04:56.837Z,87.92
2023-11-23T07:05:56.987Z,87.88
2023-11-23T07:06:56.836Z,87.93
2023-11-23T07:07:56.848Z,87.83
2023-11-23T07:08:56.821Z,87.72
2023-11-23T07:09:56.855Z,87.73
2023-11-23T07:10:56.773Z,87.78
2023-11-23T07:11:56.782Z,87.85
2023-11-23T07:12:56.754Z,87.81
2023-11-23T07:13:56.796Z,87.77
2023-11-23T07:14:56.734Z,87.72
2023-11-23T07:15:56.801Z,87.75
2023-11-23T07:16:56.729Z,87.74
2023-11-23T07:17:56.765Z,87.81
2023-11-23T07:18:56.771Z,87.83
2023-11-23T07:19:56.722Z,87.79
2023-11-23T07:20:56.656Z,87.69
2023-11-23T07:21:58.732Z,87.66
2023-11-23T07:22:56.612Z,87.67
2023-11-23T07:23:56.663Z,87.72
2023-11-23T07:24:56.624Z,87.77
2023-11-23T07:25:56.671Z,87.75
2023-11-23T07:26:56.581Z,87.70
2023-11-23T07:27:56.580Z,87.63
2023-11-23T07:28:56.529Z,87.61
2023-11-23T07:29:56.624Z,87.66
2023-11-23T07:30:56.551Z,87.65
2023-11-23T07:31:56.522Z,87.67
2023-11-23T07:32:56.522Z,87.63
2023-11-23T07:33:56.568Z,87.67
2023-11-23T07:34:56.452Z,87.74
2023-11-23T07:35:56.558Z,87.80
2023-11-23T07:36:56.451Z,87.99
2023-11-23T07:37:56.453Z,88.03
2023-11-23T07:38:56.469Z,87.88
2023-11-23T07:39:56.465Z,87.77
2023-11-23T07:40:56.382Z,87.85
2023-11-23T07:41:56.535Z,87.90
2023-11-23T07:42:56.374Z,87.83
2023-11-23T07:43:56.390Z,87.74
2023-11-23T07:44:56.353Z,87.64
2023-11-23T07:45:56.407Z,87.65
2023-11-23T07:46:56.328Z,87.66
2023-11-23T07:47:56.403Z,87.73
2023-11-23T07:48:56.332Z,87.78
2023-11-23T07:49:56.328Z,87.79
2023-11-23T07:50:56.269Z,87.70
2023-11-23T07:51:56.390Z,87.69
2023-11-23T07:52:56.220Z,87.77
2023-11-23T07:53:56.279Z,87.79
2023-11-23T07:54:56.213Z,87.63
2023-11-23T07:55:56.305Z,87.54
2023-11-23T07:56:56.200Z,87.71
2023-11-23T07:57:56.228Z,87.77
2023-11-23T07:58:56.153Z,87.63
2023-11-23T07:59:56.252Z,87.47
2023-11-23T08:00:56.314Z,87.47
2023-11-23T08:01:56.268Z,87.54
2023-11-23T08:02:56.314Z,87.46
2023-11-23T08:03:56.257Z,87.49
2023-11-23T08:04:56.113Z,87.48
2023-11-23T08:05:56.139Z,87.44
2023-11-23T08:06:56.068Z,87.47
2023-11-23T08:07:56.057Z,87.49
2023-11-23T08:08:56.040Z,87.52
2023-11-23T08:09:56.070Z,87.59
2023-11-23T08:10:55.999Z,87.67
2023-11-23T08:11:56.125Z,87.82
2023-11-23T08:12:55.978Z,87.93
2023-11-23T08:13:55.997Z,87.86
2023-11-23T08:14:55.944Z,87.75
2023-11-23T08:15:56.007Z,87.73
2023-11-23T08:16:56.089Z,87.68
2023-11-23T08:18:01.886Z,87.61
2023-11-23T08:18:56.960Z,87.60
2023-11-23T08:19:55.934Z,87.50
2023-11-23T08:20:55.862Z,87.44
2023-11-23T08:21:55.948Z,87.50
2023-11-23T08:22:55.855Z,87.62
2023-11-23T08:23:55.864Z,87.68
2023-11-23T08:24:55.824Z,87.70
2023-11-23T08:25:55.873Z,87.77
2023-11-23T08:26:55.847Z,87.81
2023-11-23T08:27:55.786Z,87.72
2023-11-23T08:28:55.753Z,87.64
2023-11-23T08:29:55.828Z,87.69
2023-11-23T08:30:55.839Z,87.66
2023-11-23T08:31:55.812Z,87.67
2023-11-23T08:32:55.763Z,87.67
2023-11-23T08:33:55.804Z,87.59
2023-11-23T08:34:55.700Z,87.57
2023-11-23T08:35:55.753Z,87.51
2023-11-23T08:36:55.768Z,87.42
2023-11-23T08:37:55.660Z,87.48
2023-11-23T08:38:55.640Z,87.58
2023-11-23T08:39:55.676Z,87.50
2023-11-23T08:40:55.598Z,87.46
2023-11-23T08:41:55.701Z,87.59
2023-11-23T08:42:55.588Z,87.67
2023-11-23T08:43:55.595Z,87.73
2023-11-23T08:44:55.560Z,87.67
2023-11-23T08:45:55.613Z,87.33
2023-11-23T08:46:55.542Z,86.71
2023-11-23T08:47:55.577Z,86.54
2023-11-23T08:48:55.703Z,86.29
2023-11-23T08:49:55.540Z,85.77
2023-11-23T08:50:55.486Z,85.63
2023-11-23T08:51:55.564Z,85.58
2023-11-23T08:52:55.476Z,85.16
2023-11-23T08:53:55.468Z,84.70
2023-11-23T08:54:55.442Z,84.32
2023-11-23T08:55:55.500Z,84.31
2023-11-23T08:56:55.422Z,83.69
2023-11-23T08:57:55.421Z,83.85
2023-11-23T08:58:55.357Z,83.83
2023-11-23T08:59:55.433Z,84.00
2023-11-23T09:00:55.356Z,83.24
2023-11-23T09:02:01.917Z,81.50
2023-11-23T09:02:56.492Z,80.74
2023-11-23T09:03:55.499Z,80.94
2023-11-23T09:04:55.360Z,81.25
2023-11-23T09:05:55.439Z,80.59
2023-11-23T09:06:55.284Z,79.89
2023-11-23T09:07:55.377Z,80.08
2023-11-23T09:08:55.238Z,80.04
2023-11-23T09:09:55.278Z,80.57
2023-11-23T09:10:55.205Z,79.59
2023-11-23T09:11:55.304Z,78.71
2023-11-23T09:12:55.243Z,78.72
2023-11-23T09:13:55.204Z,78.62
2023-11-23T09:14:55.194Z,78.49
2023-11-23T09:15:55.244Z,78.03
2023-11-23T09:16:55.138Z,77.91
2023-11-23T09:17:55.352Z,77.82
2023-11-23T09:18:55.191Z,77.79
2023-11-23T09:19:55.148Z,77.72
2023-11-23T09:20:55.749Z,76.90
2023-11-23T09:21:57.148Z,76.40
2023-11-23T09:22:55.049Z,75.83
2023-11-23T09:23:55.320Z,75.47
2023-11-23T09:24:55.044Z,75.31
2023-11-23T09:25:55.088Z,75.27
2023-11-23T09:26:55.021Z,75.55
2023-11-23T09:27:55.115Z,75.22
2023-11-23T09:28:54.974Z,75.07
2023-11-23T09:29:55.027Z,75.83
2023-11-23T09:30:54.962Z,75.14
2023-11-23T09:31:55.081Z,74.60
2023-11-23T09:32:55.015Z,75.17
2023-11-23T09:33:54.960Z,74.69
2023-11-23T09:34:54.923Z,73.85
2023-11-23T09:35:54.977Z,73.54
2023-11-23T09:36:54.903Z,73.54
2023-11-23T09:37:54.970Z,73.89
2023-11-23T09:38:54.883Z,75.16
2023-11-23T09:39:54.877Z,73.98
2023-11-23T09:40:54.843Z,72.96
2023-11-23T09:41:54.976Z,72.25
2023-11-23T09:42:54.818Z,72.02
2023-11-23T09:43:54.801Z,72.26
2023-11-23T09:44:54.789Z,70.69
2023-11-23T09:45:54.902Z,69.78
2023-11-23T09:46:54.868Z,69.33
2023-11-23T09:47:55.009Z,69.04
2023-11-23T09:48:54.734Z,68.23
2023-11-23T09:49:54.744Z,67.59
2023-11-23T09:50:54.693Z,67.05
2023-11-23T09:51:54.763Z,66.74
2023-11-23T09:52:54.663Z,66.47
2023-11-23T09:53:54.679Z,65.92
2023-11-23T09:54:54.653Z,65.82
2023-11-23T09:55:54.693Z,65.96
2023-11-23T09:56:54.636Z,65.72
2023-11-23T09:57:54.602Z,65.81
2023-11-23T09:58:54.583Z,66.00
2023-11-23T09:59:54.653Z,66.03
2023-11-23T10:00:54.598Z,65.96
2023-11-23T10:01:54.684Z,65.98
2023-11-23T10:02:54.615Z,66.32
2023-11-23T10:03:54.658Z,65.85
2023-11-23T10:04:54.504Z,65.91
2023-11-23T10:05:54.571Z,65.83
2023-11-23T10:06:54.489Z,65.99
2023-11-23T10:07:55.501Z,65.38
2023-11-23T10:08:54.495Z,65.44
2023-11-23T10:09:54.481Z,65.22
2023-11-23T10:10:54.427Z,65.46
2023-11-23T10:11:54.538Z,65.18
2023-11-23T10:12:54.429Z,64.98
2023-11-23T10:13:54.422Z,64.99
2023-11-23T10:14:54.395Z,64.44
2023-11-23T10:15:54.501Z,64.43
2023-11-23T10:16:54.450Z,64.13
2023-11-23T10:17:54.599Z,64.16
2023-11-23T10:18:54.342Z,64.69
2023-11-23T10:19:54.347Z,64.55
2023-11-23T10:20:54.356Z,64.75
2023-11-23T10:21:54.361Z,64.44
2023-11-23T10:22:54.320Z,64.26
2023-11-23T10:23:54.376Z,64.18
2023-11-23T10:24:54.269Z,63.19
2023-11-23T10:25:54.292Z,63.38
2023-11-23T10:26:54.217Z,63.53
2023-11-23T10:27:54.302Z,63.37
2023-11-23T10:28:54.189Z,63.37
2023-11-23T10:29:54.234Z,62.99
2023-11-23T10:30:54.183Z,63.29
2023-11-23T10:31:54.229Z,62.83
2023-11-23T10:32:54.179Z,62.89
2023-11-23T10:33:54.201Z,62.25
2023-11-23T10:34:54.177Z,62.51
2023-11-23T10:35:54.189Z,62.35
2023-11-23T10:36:54.100Z,62.38
2023-11-23T10:37:54.191Z,62.98
2023-11-23T10:38:54.065Z,62.65
2023-11-23T10:39:54.088Z,62.83
2023-11-23T10:40:56.351Z,62.76
2023-11-23T10:41:54.108Z,62.67
2023-11-23T10:42:54.063Z,62.40
2023-11-23T10:43:54.020Z,62.26
2023-11-23T10:44:53.985Z,63.24
2023-11-23T10:45:55.213Z,62.69
2023-11-23T10:46:53.976Z,62.54
2023-11-23T10:47:54.129Z,62.50
2023-11-23T10:48:53.958Z,62.70
2023-11-23T10:49:53.956Z,62.55
2023-11-23T10:50:54.084Z,62.10
2023-11-23T10:51:53.968Z,62.86
2023-11-23T10:52:53.876Z,62.47
2023-11-23T10:53:54.916Z,62.36
2023-11-23T10:54:53.866Z,62.32
2023-11-23T10:55:53.897Z,62.42
2023-11-23T10:56:53.819Z,62.62
2023-11-23T10:57:53.913Z,62.12
2023-11-23T10:58:53.814Z,62.15
2023-11-23T10:59:53.820Z,62.23
2023-11-23T11:00:53.787Z,61.86
2023-11-23T11:01:53.910Z,61.89
2023-11-23T11:02:53.759Z,61.99
2023-11-23T11:03:53.799Z,62.40
2023-11-23T11:04:53.724Z,62.64
2023-11-23T11:05:53.760Z,62.51
2023-11-23T11:06:53.708Z,61.78
2023-11-23T11:07:53.779Z,61.99
2023-11-23T11:08:53.667Z,62.09
2023-11-23T11:09:53.694Z,61.43
2023-11-23T11:10:53.637Z,61.71
2023-11-23T11:11:53.708Z,61.71
2023-11-23T11:12:54.199Z,61.92
2023-11-23T11:13:54.460Z,61.88
2023-11-23T11:14:54.358Z,61.85
2023-11-23T11:15:53.675Z,61.40
2023-11-23T11:16:53.564Z,61.38
2023-11-23T11:17:53.693Z,61.42
2023-11-23T11:18:54.134Z,61.21
2023-11-23T11:19:53.558Z,60.85
2023-11-23T11:20:53.505Z,60.93
2023-11-23T11:21:53.633Z,60.99
2023-11-23T11:22:53.490Z,61.27
2023-11-23T11:23:53.838Z,61.82
2023-11-23T11:24:53.475Z,61.38
2023-11-23T11:25:53.504Z,61.91
2023-11-23T11:26:53.436Z,61.45
2023-11-23T11:27:53.526Z,61.59
2023-11-23T11:28:53.429Z,61.53
2023-11-23T11:29:53.528Z,62.04
2023-11-23T11:30:53.486Z,61.86
2023-11-23T11:31:53.442Z,61.98
2023-11-23T11:32:53.387Z,61.96
2023-11-23T11:33:53.409Z,61.69
2023-11-23T11:34:53.317Z,61.32
2023-11-23T11:35:53.366Z,62.20
2023-11-23T11:36:53.308Z,62.17
2023-11-23T11:37:53.378Z,62.00
2023-11-23T11:38:53.266Z,62.08
2023-11-23T11:39:53.298Z,61.07
2023-11-23T11:40:53.245Z,61.97
2023-11-23T11:41:53.311Z,61.73
2023-11-23T11:42:53.241Z,62.24
2023-11-23T11:43:53.229Z,60.90
2023-11-23T11:44:53.195Z,60.86
2023-11-23T11:45:53.237Z,60.65
2023-11-23T11:46:53.232Z,60.64
2023-11-23T11:47:53.265Z,60.97
2023-11-23T11:48:53.249Z,60.94
2023-11-23T11:49:53.187Z,60.88
2023-11-23T11:50:53.110Z,60.89
2023-11-23T11:51:53.175Z,60.99
2023-11-23T11:52:53.076Z,61.09
2023-11-23T11:53:53.104Z,61.33
2023-11-23T11:54:53.073Z,61.50
2023-11-23T11:55:53.108Z,61.40
2023-11-23T11:56:53.035Z,61.13
2023-11-23T11:57:53.120Z,61.02
2023-11-23T11:58:53.004Z,61.26
2023-11-23T11:59:53.024Z,61.15
2023-11-23T12:00:52.995Z,61.83
2023-11-23T12:01:55.089Z,61.12
2023-11-23T12:02:53.044Z,60.66
2023-11-23T12:03:53.025Z,60.86
2023-11-23T12:04:52.917Z,60.65
2023-11-23T12:05:52.975Z,60.67
2023-11-23T12:06:52.919Z,60.39
2023-11-23T12:07:52.986Z,59.93
2023-11-23T12:08:52.871Z,60.27
2023-11-23T12:09:52.935Z,60.21
2023-11-23T12:10:52.855Z,59.74
2023-11-23T12:11:52.923Z,59.79
2023-11-23T12:12:52.831Z,60.15
2023-11-23T12:13:52.844Z,60.76
2023-11-23T12:14:52.842Z,60.09
2023-11-23T12:15:52.839Z,59.93
2023-11-23T12:16:53.715Z,59.55
2023-11-23T12:17:52.884Z,59.46
2023-11-23T12:18:52.797Z,59.57
2023-11-23T12:19:53.150Z,59.63
2023-11-23T12:20:52.715Z,60.20
2023-11-23T12:21:52.783Z,59.69
2023-11-23T12:22:52.696Z,58.98
2023-11-23T12:23:52.699Z,59.06
2023-11-23T12:24:52.838Z,59.79
2023-11-23T12:25:53.732Z,59.60
2023-11-23T12:26:52.636Z,60.13
2023-11-23T12:27:52.729Z,59.69
2023-11-23T12:28:52.617Z,58.42
2023-11-23T12:29:52.657Z,58.45
2023-11-23T12:30:52.666Z,58.46
2023-11-23T12:31:52.667Z,57.73
2023-11-23T12:32:52.568Z,57.63
2023-11-23T12:33:52.608Z,57.72
2023-11-23T12:34:52.537Z,57.58
2023-11-23T12:35:52.593Z,57.58
2023-11-23T12:36:52.528Z,57.59
2023-11-23T12:37:52.592Z,57.58
2023-11-23T12:38:52.494Z,57.68
2023-11-23T12:39:52.502Z,57.33
2023-11-23T12:40:52.451Z,57.52
2023-11-23T12:41:55.178Z,57.45
2023-11-23T12:42:52.452Z,57.41
2023-11-23T12:43:52.495Z,57.24
2023-11-23T12:44:52.413Z,57.43
2023-11-23T12:45:52.571Z,57.48
2023-11-23T12:46:52.518Z,57.45
2023-11-23T12:47:52.517Z,57.18
2023-11-23T12:48:52.392Z,57.37
2023-11-23T12:49:52.367Z,57.46
2023-11-23T12:50:52.321Z,57.31
2023-11-23T12:51:52.385Z,56.98